sensor_id;sensor_type;location;lat;lon;timestamp;pressure;altitude;pressure_sealevel;temperature;humidity
73692;BME280;61996;49.910;35.562;2023-02-11T00:00:05;100460.78;;;20.48;33.28
73692;BME280;61996;49.910;35.562;2023-02-11T00:03:10;100449.38;;;20.35;33.29
73692;BME280;61996;49.910;35.562;2023-02-11T00:06:12;100449.66;;;20.32;33.28
73692;BME280;61996;49.910;35.562;2023-02-11T00:09:15;100461.19;;;20.32;33.26
73692;BME280;61996;49.910;35.562;2023-02-11T00:12:18;100450.38;;;20.34;33.32
73692;BME280;61996;49.910;35.562;2023-02-11T00:15:21;100453.88;;;20.34;33.25
73692;BME280;61996;49.910;35.562;2023-02-11T00:18:26;100450.09;;;20.37;33.19
73692;BME280;61996;49.910;35.562;2023-02-11T00:21:29;100446.72;;;20.35;33.21
73692;BME280;61996;49.910;35.562;2023-02-11T00:24:32;100442.06;;;20.37;33.11
73692;BME280;61996;49.910;35.562;2023-02-11T00:27:35;100450.22;;;20.35;33.14
73692;BME280;61996;49.910;35.562;2023-02-11T00:30:38;100453.41;;;20.29;33.20
73692;BME280;61996;49.910;35.562;2023-02-11T00:33:43;100458.25;;;20.35;33.13
73692;BME280;61996;49.910;35.562;2023-02-11T00:36:46;100455.56;;;20.35;33.19
73692;BME280;61996;49.910;35.562;2023-02-11T00:39:49;100452.66;;;20.38;33.08
73692;BME280;61996;49.910;35.562;2023-02-11T00:42:52;100450.22;;;20.35;33.09
73692;BME280;61996;49.910;35.562;2023-02-11T00:45:56;100450.09;;;20.37;33.15
73692;BME280;61996;49.910;35.562;2023-02-11T00:49:00;100442.69;;;20.40;33.12
73692;BME280;61996;49.910;35.562;2023-02-11T00:52:03;100434.19;;;20.35;33.00
73692;BME280;61996;49.910;35.562;2023-02-11T00:55:06;100439.31;;;20.38;32.94
73692;BME280;61996;49.910;35.562;2023-02-11T00:58:10;100435.50;;;20.41;32.90
73692;BME280;61996;49.910;35.562;2023-02-11T01:01:13;100440.25;;;20.37;32.99
73692;BME280;61996;49.910;35.562;2023-02-11T01:04:17;100435.03;;;20.36;32.93
73692;BME280;61996;49.910;35.562;2023-02-11T01:07:20;100432.38;;;20.36;32.95
73692;BME280;61996;49.910;35.562;2023-02-11T01:10:23;100426.78;;;20.39;32.87
73692;BME280;61996;49.910;35.562;2023-02-11T01:13:26;100422.53;;;20.36;32.88
73692;BME280;61996;49.910;35.562;2023-02-11T01:16:30;100428.72;;;20.37;32.85
73692;BME280;61996;49.910;35.562;2023-02-11T01:19:34;100427.16;;;20.34;32.96
73692;BME280;61996;49.910;35.562;2023-02-11T01:22:37;100426.66;;;20.40;32.79
73692;BME280;61996;49.910;35.562;2023-02-11T01:25:40;100438.19;;;20.41;32.91
73692;BME280;61996;49.910;35.562;2023-02-11T01:28:43;100437.56;;;20.37;32.78
73692;BME280;61996;49.910;35.562;2023-02-11T01:31:46;100438.03;;;20.42;32.76
73692;BME280;61996;49.910;35.562;2023-02-11T01:34:50;100432.25;;;20.37;33.00
73692;BME280;61996;49.910;35.562;2023-02-11T01:37:53;100436.75;;;20.37;32.81
73692;BME280;61996;49.910;35.562;2023-02-11T01:40:56;100436.50;;;20.40;32.85
73692;BME280;61996;49.910;35.562;2023-02-11T01:47:17;100430.69;;;20.35;32.71
73692;BME280;61996;49.910;35.562;2023-02-11T01:50:21;100435.50;;;20.41;32.82
73692;BME280;61996;49.910;35.562;2023-02-11T01:53:24;100430.31;;;20.39;32.84
73692;BME280;61996;49.910;35.562;2023-02-11T01:56:46;100437.91;;;20.44;32.62
73692;BME280;61996;49.910;35.562;2023-02-11T02:00:09;100437.47;;;20.39;32.76
73692;BME280;61996;49.910;35.562;2023-02-11T02:03:13;100442.22;;;20.35;32.67
73692;BME280;61996;49.910;35.562;2023-02-11T02:06:22;100440.66;;;20.33;32.81
73692;BME280;61996;49.910;35.562;2023-02-11T02:09:28;100444.31;;;20.32;32.82
73692;BME280;61996;49.910;35.562;2023-02-11T02:12:33;100442.28;;;20.24;32.98
73692;BME280;61996;49.910;35.562;2023-02-11T02:15:37;100445.34;;;20.19;32.93
73692;BME280;61996;49.910;35.562;2023-02-11T02:18:44;100442.69;;;20.08;33.26
73692;BME280;61996;49.910;35.562;2023-02-11T02:21:58;100439.31;;;20.06;33.11
73692;BME280;61996;49.910;35.562;2023-02-11T02:28:30;100445.31;;;19.87;33.35
73692;BME280;61996;49.910;35.562;2023-02-11T02:31:41;100441.72;;;19.77;33.51
73692;BME280;61996;49.910;35.562;2023-02-11T02:34:51;100433.22;;;19.72;33.68
73692;BME280;61996;49.910;35.562;2023-02-11T02:37:55;100442.56;;;19.66;33.93
73692;BME280;61996;49.910;35.562;2023-02-11T02:41:03;100435.81;;;19.62;33.78
73692;BME280;61996;49.910;35.562;2023-02-11T02:44:08;100428.50;;;19.53;33.93
73692;BME280;61996;49.910;35.562;2023-02-11T02:47:10;100426.94;;;19.51;33.98
73692;BME280;61996;49.910;35.562;2023-02-11T02:50:15;100421.84;;;19.59;33.79
73692;BME280;61996;49.910;35.562;2023-02-11T02:53:23;100433.84;;;19.53;33.93
73692;BME280;61996;49.910;35.562;2023-02-11T02:56:29;100436.03;;;19.48;34.06
73692;BME280;61996;49.910;35.562;2023-02-11T02:59:39;100436.28;;;19.45;33.92
73692;BME280;61996;49.910;35.562;2023-02-11T03:02:49;100427.31;;;19.35;34.14
73692;BME280;61996;49.910;35.562;2023-02-11T03:05:55;100417.72;;;19.32;34.29
73692;BME280;61996;49.910;35.562;2023-02-11T03:09:03;100420.53;;;19.31;34.13
73692;BME280;61996;49.910;35.562;2023-02-11T03:12:11;100414.84;;;19.24;34.25
73692;BME280;61996;49.910;35.562;2023-02-11T03:15:15;100416.78;;;19.22;34.50
73692;BME280;61996;49.910;35.562;2023-02-11T03:18:20;100414.88;;;19.13;34.55
73692;BME280;61996;49.910;35.562;2023-02-11T03:21:25;100407.22;;;19.08;34.58
73692;BME280;61996;49.910;35.562;2023-02-11T03:24:29;100406.00;;;19.01;34.50
73692;BME280;61996;49.910;35.562;2023-02-11T03:27:33;100408.19;;;18.96;34.52
73692;BME280;61996;49.910;35.562;2023-02-11T03:30:41;100407.47;;;18.94;34.67
73692;BME280;61996;49.910;35.562;2023-02-11T03:33:51;100415.69;;;18.91;34.64
73692;BME280;61996;49.910;35.562;2023-02-11T03:36:58;100410.94;;;18.83;34.68
73692;BME280;61996;49.910;35.562;2023-02-11T03:40:04;100408.75;;;18.77;34.74
73692;BME280;61996;49.910;35.562;2023-02-11T03:43:08;100409.13;;;18.73;34.86
73692;BME280;61996;49.910;35.562;2023-02-11T03:46:14;100403.19;;;18.69;34.95
73692;BME280;61996;49.910;35.562;2023-02-11T03:49:19;100409.38;;;18.70;34.85
73692;BME280;61996;49.910;35.562;2023-02-11T03:52:24;100408.00;;;18.64;34.96
73692;BME280;61996;49.910;35.562;2023-02-11T03:55:28;100402.56;;;18.66;34.86
73692;BME280;61996;49.910;35.562;2023-02-11T03:58:32;100405.56;;;18.61;35.02
73692;BME280;61996;49.910;35.562;2023-02-11T04:01:34;100396.97;;;18.57;34.93
73692;BME280;61996;49.910;35.562;2023-02-11T04:04:37;100401.88;;;18.75;34.41
73692;BME280;61996;49.910;35.562;2023-02-11T04:07:41;100406.59;;;18.82;34.35
73692;BME280;61996;49.910;35.562;2023-02-11T04:10:44;100406.50;;;18.95;34.21
73692;BME280;61996;49.910;35.562;2023-02-11T04:13:47;100406.13;;;19.00;34.07
73692;BME280;61996;49.910;35.562;2023-02-11T04:16:50;100406.97;;;19.11;33.77
73692;BME280;61996;49.910;35.562;2023-02-11T04:19:52;100403.31;;;19.24;33.66
73692;BME280;61996;49.910;35.562;2023-02-11T04:22:56;100401.50;;;19.35;33.43
73692;BME280;61996;49.910;35.562;2023-02-11T04:25:59;100406.22;;;19.43;33.47
73692;BME280;61996;49.910;35.562;2023-02-11T04:29:02;100405.25;;;19.44;33.19
73692;BME280;61996;49.910;35.562;2023-02-11T04:32:05;100411.19;;;19.48;33.12
73692;BME280;61996;49.910;35.562;2023-02-11T04:35:08;100406.31;;;19.53;33.09
73692;BME280;61996;49.910;35.562;2023-02-11T04:38:12;100404.03;;;19.59;32.98
73692;BME280;61996;49.910;35.562;2023-02-11T04:41:15;100417.13;;;19.62;32.86
73692;BME280;61996;49.910;35.562;2023-02-11T04:44:18;100409.97;;;19.63;32.82
73692;BME280;61996;49.910;35.562;2023-02-11T04:47:20;100415.03;;;19.66;32.84
73692;BME280;61996;49.910;35.562;2023-02-11T04:50:23;100409.56;;;19.67;32.77
73692;BME280;61996;49.910;35.562;2023-02-11T04:53:27;100408.50;;;19.70;32.77
73692;BME280;61996;49.910;35.562;2023-02-11T04:56:30;100400.34;;;19.71;32.69
73692;BME280;61996;49.910;35.562;2023-02-11T04:59:33;100403.03;;;19.71;32.72
73692;BME280;61996;49.910;35.562;2023-02-11T05:02:36;100399.25;;;19.74;32.72
73692;BME280;61996;49.910;35.562;2023-02-11T05:05:39;100403.50;;;19.77;32.63
73692;BME280;61996;49.910;35.562;2023-02-11T05:08:43;100407.72;;;19.79;32.74
73692;BME280;61996;49.910;35.562;2023-02-11T05:11:46;100407.59;;;19.81;32.63
73692;BME280;61996;49.910;35.562;2023-02-11T05:14:49;100409.28;;;19.82;32.60
73692;BME280;61996;49.910;35.562;2023-02-11T05:17:52;100415.50;;;19.82;32.49
73692;BME280;61996;49.910;35.562;2023-02-11T05:20:55;100409.56;;;19.79;32.59
73692;BME280;61996;49.910;35.562;2023-02-11T05:23:59;100403.00;;;19.83;32.58
73692;BME280;61996;49.910;35.562;2023-02-11T05:27:02;100397.53;;;19.84;32.53
73692;BME280;61996;49.910;35.562;2023-02-11T05:30:05;100408.78;;;19.88;32.42
73692;BME280;61996;49.910;35.562;2023-02-11T05:33:08;100394.59;;;19.87;32.45
73692;BME280;61996;49.910;35.562;2023-02-11T05:36:11;100390.00;;;19.89;32.59
73692;BME280;61996;49.910;35.562;2023-02-11T05:39:19;100406.00;;;19.89;32.59
73692;BME280;61996;49.910;35.562;2023-02-11T05:42:22;100401.38;;;19.91;32.56
73692;BME280;61996;49.910;35.562;2023-02-11T05:45:25;100391.06;;;19.87;32.67
73692;BME280;61996;49.910;35.562;2023-02-11T05:48:27;100395.91;;;19.93;32.53
73692;BME280;61996;49.910;35.562;2023-02-11T05:51:30;100385.50;;;19.90;32.55
73692;BME280;61996;49.910;35.562;2023-02-11T05:54:34;100393.09;;;19.94;32.48
73692;BME280;61996;49.910;35.562;2023-02-11T05:57:37;100391.19;;;19.96;32.41
73692;BME280;61996;49.910;35.562;2023-02-11T06:00:40;100383.28;;;19.95;32.57
73692;BME280;61996;49.910;35.562;2023-02-11T06:03:43;100387.78;;;19.94;32.42
73692;BME280;61996;49.910;35.562;2023-02-11T06:06:45;100381.44;;;19.95;32.45
73692;BME280;61996;49.910;35.562;2023-02-11T06:09:49;100378.72;;;19.86;32.66
73692;BME280;61996;49.910;35.562;2023-02-11T06:12:52;100372.47;;;19.76;32.74
73692;BME280;61996;49.910;35.562;2023-02-11T06:15:55;100376.59;;;19.68;33.10
73692;BME280;61996;49.910;35.562;2023-02-11T06:18:58;100371.78;;;19.62;33.06
73692;BME280;61996;49.910;35.562;2023-02-11T06:22:02;100360.47;;;19.59;33.17
73692;BME280;61996;49.910;35.562;2023-02-11T06:25:06;100363.63;;;19.53;33.16
73692;BME280;61996;49.910;35.562;2023-02-11T06:28:09;100359.88;;;19.44;33.19
73692;BME280;61996;49.910;35.562;2023-02-11T06:31:12;100357.72;;;19.38;33.40
73692;BME280;61996;49.910;35.562;2023-02-11T06:34:15;100362.34;;;19.36;33.38
73692;BME280;61996;49.910;35.562;2023-02-11T06:37:18;100361.13;;;19.29;33.60
73692;BME280;61996;49.910;35.562;2023-02-11T06:40:22;100356.44;;;19.21;33.46
73692;BME280;61996;49.910;35.562;2023-02-11T06:43:25;100366.03;;;19.12;33.68
73692;BME280;61996;49.910;35.562;2023-02-11T06:46:28;100368.34;;;19.06;33.84
73692;BME280;61996;49.910;35.562;2023-02-11T06:49:31;100365.28;;;19.10;33.72
73692;BME280;61996;49.910;35.562;2023-02-11T06:52:33;100359.47;;;19.05;33.80
73692;BME280;61996;49.910;35.562;2023-02-11T06:55:38;100356.81;;;18.94;33.87
73692;BME280;61996;49.910;35.562;2023-02-11T06:58:40;100353.44;;;18.92;33.94
73692;BME280;61996;49.910;35.562;2023-02-11T07:01:43;100366.00;;;18.90;33.95
73692;BME280;61996;49.910;35.562;2023-02-11T07:04:46;100366.00;;;18.90;33.96
73692;BME280;61996;49.910;35.562;2023-02-11T07:07:49;100362.41;;;18.80;34.13
73692;BME280;61996;49.910;35.562;2023-02-11T07:10:53;100359.50;;;18.72;34.05
73692;BME280;61996;49.910;35.562;2023-02-11T07:13:59;100354.88;;;18.74;34.16
73692;BME280;61996;49.910;35.562;2023-02-11T07:17:02;100350.75;;;18.70;34.18
73692;BME280;61996;49.910;35.562;2023-02-11T07:20:05;100356.31;;;18.67;34.42
73692;BME280;61996;49.910;35.562;2023-02-11T07:23:09;100353.75;;;18.65;34.30
73692;BME280;61996;49.910;35.562;2023-02-11T07:26:13;100364.50;;;18.63;34.30
73692;BME280;61996;49.910;35.562;2023-02-11T07:29:16;100370.09;;;18.60;34.29
73692;BME280;61996;49.910;35.562;2023-02-11T07:32:19;100369.13;;;18.61;34.33
73692;BME280;61996;49.910;35.562;2023-02-11T07:35:22;100371.84;;;18.73;34.23
73692;BME280;61996;49.910;35.562;2023-02-11T07:38:25;100367.94;;;18.77;33.79
73692;BME280;61996;49.910;35.562;2023-02-11T07:41:29;100371.94;;;18.82;33.76
73692;BME280;61996;49.910;35.562;2023-02-11T07:44:32;100365.78;;;18.93;33.61
73692;BME280;61996;49.910;35.562;2023-02-11T07:47:37;100379.84;;;19.06;33.36
73692;BME280;61996;49.910;35.562;2023-02-11T07:50:40;100366.47;;;19.17;33.31
73692;BME280;61996;49.910;35.562;2023-02-11T07:53:44;100374.59;;;19.27;33.00
73692;BME280;61996;49.910;35.562;2023-02-11T07:56:48;100366.97;;;19.34;32.98
73692;BME280;61996;49.910;35.562;2023-02-11T07:59:51;100359.91;;;19.33;32.94
73692;BME280;61996;49.910;35.562;2023-02-11T08:02:55;100347.53;;;19.43;32.77
73692;BME280;61996;49.910;35.562;2023-02-11T08:05:59;100343.16;;;19.42;32.78
73692;BME280;61996;49.910;35.562;2023-02-11T08:09:04;100347.25;;;19.46;32.78
73692;BME280;61996;49.910;35.562;2023-02-11T08:12:09;100350.53;;;19.50;32.69
73692;BME280;61996;49.910;35.562;2023-02-11T08:15:12;100338.19;;;19.49;32.70
73692;BME280;61996;49.910;35.562;2023-02-11T08:18:16;100338.53;;;19.55;32.55
73692;BME280;61996;49.910;35.562;2023-02-11T08:21:19;100335.13;;;19.53;32.70
73692;BME280;61996;49.910;35.562;2023-02-11T08:24:22;100325.94;;;19.57;32.59
73692;BME280;61996;49.910;35.562;2023-02-11T08:27:26;100323.00;;;19.60;32.43
73692;BME280;61996;49.910;35.562;2023-02-11T08:30:29;100321.78;;;19.64;32.42
73692;BME280;61996;49.910;35.562;2023-02-11T08:33:31;100314.75;;;19.63;32.42
73692;BME280;61996;49.910;35.562;2023-02-11T08:36:35;100318.13;;;19.65;32.50
73692;BME280;61996;49.910;35.562;2023-02-11T08:39:38;100323.94;;;19.70;32.56
73692;BME280;61996;49.910;35.562;2023-02-11T08:42:42;100325.06;;;19.68;32.40
73692;BME280;61996;49.910;35.562;2023-02-11T08:45:44;100324.94;;;19.69;32.46
73692;BME280;61996;49.910;35.562;2023-02-11T08:48:47;100318.47;;;19.72;32.40
73692;BME280;61996;49.910;35.562;2023-02-11T08:51:50;100305.84;;;19.74;32.45
73692;BME280;61996;49.910;35.562;2023-02-11T08:54:54;100305.72;;;19.76;32.32
73692;BME280;61996;49.910;35.562;2023-02-11T08:57:58;100310.94;;;19.77;32.35
73692;BME280;61996;49.910;35.562;2023-02-11T09:01:04;100303.63;;;19.79;32.31
73692;BME280;61996;49.910;35.562;2023-02-11T09:04:10;100291.97;;;19.80;32.28
73692;BME280;61996;49.910;35.562;2023-02-11T09:07:12;100286.13;;;19.86;32.22
73692;BME280;61996;49.910;35.562;2023-02-11T09:10:15;100286.50;;;19.82;32.21
73692;BME280;61996;49.910;35.562;2023-02-11T09:13:19;100280.09;;;19.84;32.14
73692;BME280;61996;49.910;35.562;2023-02-11T09:16:23;100277.16;;;19.87;32.21
73692;BME280;61996;49.910;35.562;2023-02-11T09:19:26;100272.66;;;19.88;32.20
73692;BME280;61996;49.910;35.562;2023-02-11T09:22:29;100268.75;;;19.92;32.18
73692;BME280;61996;49.910;35.562;2023-02-11T09:25:32;100256.63;;;19.88;32.21
73692;BME280;61996;49.910;35.562;2023-02-11T09:28:36;100260.75;;;19.92;32.27
73692;BME280;61996;49.910;35.562;2023-02-11T09:31:39;100259.25;;;19.99;32.02
73692;BME280;61996;49.910;35.562;2023-02-11T09:34:42;100264.59;;;19.99;32.07
73692;BME280;61996;49.910;35.562;2023-02-11T09:37:45;100257.09;;;19.93;32.31
73692;BME280;61996;49.910;35.562;2023-02-11T09:40:48;100249.56;;;19.98;32.27
73692;BME280;61996;49.910;35.562;2023-02-11T09:43:53;100236.19;;;19.98;32.30
73692;BME280;61996;49.910;35.562;2023-02-11T09:46:57;100237.75;;;20.01;32.13
73692;BME280;61996;49.910;35.562;2023-02-11T09:50:01;100220.88;;;20.00;32.10
73692;BME280;61996;49.910;35.562;2023-02-11T09:53:05;100220.19;;;19.98;32.25
73692;BME280;61996;49.910;35.562;2023-02-11T09:56:12;100215.56;;;20.00;32.27
73692;BME280;61996;49.910;35.562;2023-02-11T09:59:16;100213.47;;;20.04;32.26
73692;BME280;61996;49.910;35.562;2023-02-11T10:02:21;100214.56;;;20.01;32.25
73692;BME280;61996;49.910;35.562;2023-02-11T10:05:30;100207.00;;;20.06;32.16
73692;BME280;61996;49.910;35.562;2023-02-11T10:08:38;100211.22;;;20.09;32.11
73692;BME280;61996;49.910;35.562;2023-02-11T10:11:46;100202.78;;;20.04;32.22
73692;BME280;61996;49.910;35.562;2023-02-11T10:14:59;100198.72;;;20.09;32.20
73692;BME280;61996;49.910;35.562;2023-02-11T10:18:12;100187.19;;;20.09;32.14
73692;BME280;61996;49.910;35.562;2023-02-11T10:21:19;100184.00;;;20.15;32.18
73692;BME280;61996;49.910;35.562;2023-02-11T10:24:26;100184.00;;;20.15;32.24
73692;BME280;61996;49.910;35.562;2023-02-11T10:27:30;100193.13;;;20.12;32.15
73692;BME280;61996;49.910;35.562;2023-02-11T10:30:37;100181.47;;;20.13;32.28
73692;BME280;61996;49.910;35.562;2023-02-11T10:33:42;100182.47;;;20.22;32.01
73692;BME280;61996;49.910;35.562;2023-02-11T10:36:47;100179.13;;;20.20;32.14
73692;BME280;61996;49.910;35.562;2023-02-11T10:39:50;100183.59;;;20.19;32.18
73692;BME280;61996;49.910;35.562;2023-02-11T10:42:55;100171.66;;;20.23;32.05
73692;BME280;61996;49.910;35.562;2023-02-11T10:46:01;100161.41;;;20.19;32.08
73692;BME280;61996;49.910;35.562;2023-02-11T10:49:07;100170.56;;;20.26;32.10
73692;BME280;61996;49.910;35.562;2023-02-11T10:52:14;100171.09;;;20.20;32.24
73692;BME280;61996;49.910;35.562;2023-02-11T10:55:18;100168.72;;;20.26;32.82
73692;BME280;61996;49.910;35.562;2023-02-11T10:58:22;100161.16;;;20.32;32.44
73692;BME280;61996;49.910;35.562;2023-02-11T11:01:42;100152.00;;;20.24;32.62
73692;BME280;61996;49.910;35.562;2023-02-11T11:04:46;100150.19;;;20.25;32.56
73692;BME280;61996;49.910;35.562;2023-02-11T11:07:50;100152.56;;;20.28;32.55
73692;BME280;61996;49.910;35.562;2023-02-11T11:11:00;100139.50;;;20.25;32.67
73692;BME280;61996;49.910;35.562;2023-02-11T11:14:04;100122.94;;;20.31;32.49
73692;BME280;61996;49.910;35.562;2023-02-11T11:17:10;100123.78;;;20.32;32.41
73692;BME280;61996;49.910;35.562;2023-02-11T11:20:18;100123.03;;;20.30;32.43
73692;BME280;61996;49.910;35.562;2023-02-11T11:23:21;100118.00;;;20.36;32.92
73692;BME280;61996;49.910;35.562;2023-02-11T11:26:25;100111.97;;;20.34;32.54
73692;BME280;61996;49.910;35.562;2023-02-11T11:29:29;100103.41;;;20.31;32.53
73692;BME280;61996;49.910;35.562;2023-02-11T11:32:35;100093.81;;;20.28;32.62
73692;BME280;61996;49.910;35.562;2023-02-11T11:35:40;100095.94;;;20.24;32.63
73692;BME280;61996;49.910;35.562;2023-02-11T11:38:43;100089.06;;;20.32;32.75
73692;BME280;61996;49.910;35.562;2023-02-11T11:41:51;100083.88;;;20.40;32.76
73692;BME280;61996;49.910;35.562;2023-02-11T11:44:55;100075.56;;;20.33;33.21
73692;BME280;61996;49.910;35.562;2023-02-11T11:48:01;100078.78;;;20.37;32.99
73692;BME280;61996;49.910;35.562;2023-02-11T11:51:09;100079.47;;;20.29;33.23
73692;BME280;61996;49.910;35.562;2023-02-11T11:54:12;100071.34;;;20.31;33.22
73692;BME280;61996;49.910;35.562;2023-02-11T11:57:17;100072.19;;;20.31;32.86
73692;BME280;61996;49.910;35.562;2023-02-11T12:00:23;100061.34;;;20.33;33.08
73692;BME280;61996;49.910;35.562;2023-02-11T12:07:07;100050.38;;;20.36;33.21
73692;BME280;61996;49.910;35.562;2023-02-11T12:10:30;100051.53;;;20.33;33.12
73692;BME280;61996;49.910;35.562;2023-02-11T12:17:00;100036.59;;;20.21;33.83
73692;BME280;61996;49.910;35.562;2023-02-11T12:23:35;100041.19;;;20.09;34.72
73692;BME280;61996;49.910;35.562;2023-02-11T12:26:41;100035.00;;;19.99;34.27
73692;BME280;61996;49.910;35.562;2023-02-11T12:29:50;100033.16;;;19.99;34.27
73692;BME280;61996;49.910;35.562;2023-02-11T12:32:57;100033.00;;;19.91;34.13
73692;BME280;61996;49.910;35.562;2023-02-11T12:36:06;100036.25;;;19.95;33.96
73692;BME280;61996;49.910;35.562;2023-02-11T12:39:15;100023.88;;;19.84;34.27
73692;BME280;61996;49.910;35.562;2023-02-11T12:42:30;100017.13;;;19.90;34.20
73692;BME280;61996;49.910;35.562;2023-02-11T12:46:06;100006.72;;;19.87;34.85
73692;BME280;61996;49.910;35.562;2023-02-11T12:49:27;100002.91;;;19.80;34.85
73692;BME280;61996;49.910;35.562;2023-02-11T12:52:37;99989.31;;;19.83;34.70
73692;BME280;61996;49.910;35.562;2023-02-11T12:55:45;99984.75;;;19.74;36.02
73692;BME280;61996;49.910;35.562;2023-02-11T12:58:50;99981.00;;;19.76;36.30
73692;BME280;61996;49.910;35.562;2023-02-11T13:01:54;99986.19;;;19.78;37.11
73692;BME280;61996;49.910;35.562;2023-02-11T13:04:59;99981.69;;;19.78;37.90
73692;BME280;61996;49.910;35.562;2023-02-11T13:08:05;99959.34;;;19.69;38.96
73692;BME280;61996;49.910;35.562;2023-02-11T13:11:14;99963.41;;;19.74;38.28
73692;BME280;61996;49.910;35.562;2023-02-11T13:14:21;99967.06;;;19.63;37.87
73692;BME280;61996;49.910;35.562;2023-02-11T13:17:27;99952.72;;;19.64;37.32
73692;BME280;61996;49.910;35.562;2023-02-11T13:20:34;99949.63;;;19.59;36.81
73692;BME280;61996;49.910;35.562;2023-02-11T13:23:40;99942.41;;;19.50;37.00
73692;BME280;61996;49.910;35.562;2023-02-11T13:26:49;99933.81;;;19.46;36.74
73692;BME280;61996;49.910;35.562;2023-02-11T13:30:12;99931.88;;;19.48;36.54
73692;BME280;61996;49.910;35.562;2023-02-11T13:33:16;99926.88;;;19.64;36.12
73692;BME280;61996;49.910;35.562;2023-02-11T13:36:20;99923.94;;;19.67;36.76
73692;BME280;61996;49.910;35.562;2023-02-11T13:39:24;99912.59;;;19.75;36.62
73692;BME280;61996;49.910;35.562;2023-02-11T13:42:28;99917.25;;;19.83;36.42
73692;BME280;61996;49.910;35.562;2023-02-11T13:45:35;99920.22;;;19.99;36.08
73692;BME280;61996;49.910;35.562;2023-02-11T13:48:44;99909.53;;;19.99;35.93
73692;BME280;61996;49.910;35.562;2023-02-11T13:51:47;99908.00;;;20.06;35.62
73692;BME280;61996;49.910;35.562;2023-02-11T13:54:51;99908.28;;;20.13;35.50
73692;BME280;61996;49.910;35.562;2023-02-11T14:01:18;99897.31;;;20.25;35.30
73692;BME280;61996;49.910;35.562;2023-02-11T14:08:16;99895.91;;;20.21;35.09
73692;BME280;61996;49.910;35.562;2023-02-11T14:11:41;99889.56;;;20.22;34.96
73692;BME280;61996;49.910;35.562;2023-02-11T14:14:56;99888.44;;;20.35;34.70
73692;BME280;61996;49.910;35.562;2023-02-11T14:21:28;99888.00;;;20.30;34.63
73692;BME280;61996;49.910;35.562;2023-02-11T14:24:42;99892.50;;;20.29;34.53
73692;BME280;61996;49.910;35.562;2023-02-11T14:27:47;99890.28;;;20.34;34.40
73692;BME280;61996;49.910;35.562;2023-02-11T14:30:56;99888.16;;;20.28;34.42
73692;BME280;61996;49.910;35.562;2023-02-11T14:34:14;99883.50;;;20.30;34.38
73692;BME280;61996;49.910;35.562;2023-02-11T14:37:33;99884.78;;;20.36;34.14
73692;BME280;61996;49.910;35.562;2023-02-11T14:40:40;99889.56;;;20.42;34.18
73692;BME280;61996;49.910;35.562;2023-02-11T14:43:48;99874.94;;;20.36;33.99
73692;BME280;61996;49.910;35.562;2023-02-11T14:46:53;99878.88;;;20.42;33.97
73692;BME280;61996;49.910;35.562;2023-02-11T14:49:56;99876.75;;;20.36;33.97
73692;BME280;61996;49.910;35.562;2023-02-11T14:53:00;99876.34;;;20.40;33.79
73692;BME280;61996;49.910;35.562;2023-02-11T14:56:14;99864.28;;;20.46;33.64
73692;BME280;61996;49.910;35.562;2023-02-11T14:59:19;99857.50;;;20.42;33.76
73692;BME280;61996;49.910;35.562;2023-02-11T15:02:22;99864.81;;;20.49;33.66
73692;BME280;61996;49.910;35.562;2023-02-11T15:05:27;99862.59;;;20.45;33.71
73692;BME280;61996;49.910;35.562;2023-02-11T15:08:31;99862.00;;;20.51;33.40
73692;BME280;61996;49.910;35.562;2023-02-11T15:11:37;99854.97;;;20.50;33.62
73692;BME280;61996;49.910;35.562;2023-02-11T15:14:40;99853.16;;;20.50;33.64
73692;BME280;61996;49.910;35.562;2023-02-11T15:17:47;99853.03;;;20.52;33.54
73692;BME280;61996;49.910;35.562;2023-02-11T15:20:50;99848.47;;;20.62;33.65
73692;BME280;61996;49.910;35.562;2023-02-11T15:23:55;99839.78;;;20.60;34.02
73692;BME280;61996;49.910;35.562;2023-02-11T15:26:59;99834.28;;;20.62;33.69
73692;BME280;61996;49.910;35.562;2023-02-11T15:30:07;99838.09;;;20.59;33.87
73692;BME280;61996;49.910;35.562;2023-02-11T15:33:20;99830.34;;;20.66;33.57
73692;BME280;61996;49.910;35.562;2023-02-11T15:36:23;99826.53;;;20.68;33.59
73692;BME280;61996;49.910;35.562;2023-02-11T15:39:36;99823.28;;;20.65;33.64
73692;BME280;61996;49.910;35.562;2023-02-11T15:42:51;99823.28;;;20.65;33.59
73692;BME280;61996;49.910;35.562;2023-02-11T15:45:58;99819.50;;;20.67;33.58
73692;BME280;61996;49.910;35.562;2023-02-11T15:49:03;99812.75;;;20.63;33.65
73692;BME280;61996;49.910;35.562;2023-02-11T15:52:07;99816.84;;;20.67;33.59
73692;BME280;61996;49.910;35.562;2023-02-11T15:55:12;99817.00;;;20.66;33.60
73692;BME280;61996;49.910;35.562;2023-02-11T15:58:15;99811.63;;;20.66;33.66
73692;BME280;61996;49.910;35.562;2023-02-11T16:01:18;99808.66;;;20.69;33.45
73692;BME280;61996;49.910;35.562;2023-02-11T16:04:33;99801.63;;;20.68;33.50
73692;BME280;61996;49.910;35.562;2023-02-11T16:07:38;99791.94;;;20.67;33.63
73692;BME280;61996;49.910;35.562;2023-02-11T16:10:51;99779.13;;;20.70;33.42
73692;BME280;61996;49.910;35.562;2023-02-11T16:13:54;99770.69;;;20.65;33.56
73692;BME280;61996;49.910;35.562;2023-02-11T16:17:00;99784.06;;;20.65;33.46
73692;BME280;61996;49.910;35.562;2023-02-11T16:20:04;99770.69;;;20.65;33.49
73692;BME280;61996;49.910;35.562;2023-02-11T16:23:12;99761.72;;;20.66;33.41
73692;BME280;61996;49.910;35.562;2023-02-11T16:26:23;99756.06;;;20.69;33.46